Home > Products > Valid Products > MTR

000
SAUS44 KLIX 281952
MTRBVE
METAR KBVE 281951Z AUTO 06008KT 10SM CLR 16/08 A3025 RMK AO2 SLP244
T01560083





000
SAUS44 KLIX 281852
MTRBVE
METAR KBVE 281851Z AUTO 06008KT 10SM CLR 16/08 A3027 RMK AO2 SLP248
T01560083





000
SAUS44 KLIX 281753
MTRBVE
METAR KBVE 281751Z AUTO 06008KT 10SM CLR 15/08 A3028 RMK AO2 SLP254
T01500083 10156 20106 50001





000
SAUS44 KLIX 281652
MTRBVE
METAR KBVE 281651Z AUTO 06008KT 10SM CLR 15/08 A3030 RMK AO2 SLP260
T01500078





000
SAUS44 KLIX 281552
MTRBVE
METAR KBVE 281551Z AUTO 06007KT 10SM CLR 14/08 A3031 RMK AO2 SLP262
T01440083





000
SAUS44 KLIX 281552
MTRBVE
METAR KBVE 281551Z AUTO 06007KT 10SM CLR 14/08 A3031 RMK AO2 SLP262
T01440083





000
SAUS44 KLIX 281452
MTRBVE
METAR KBVE 281451Z AUTO 06007KT 10SM CLR 13/08 A3028 RMK AO2 SLP253
T01280078 51018





000
SAUS44 KLIX 281452
MTRBVE
METAR KBVE 281451Z AUTO 06007KT 10SM CLR 13/08 A3028 RMK AO2 SLP253
T01280078 51018





000
SAUS44 KLIX 281352
MTRBVE
METAR KBVE 281351Z AUTO 05007KT 10SM CLR 12/08 A3027 RMK AO2 SLP248
T01170083





000
SAUS44 KLIX 281253
MTRBVE
METAR KBVE 281251Z AUTO 04007KT 10SM CLR 11/08 A3025 RMK AO2 SLP242
T01060078





000
SAUS44 KLIX 281154
MTRBVE
METAR KBVE 281151Z AUTO 03007KT 10SM CLR 11/08 A3023 RMK AO2 SLP235
T01060078 10128 20106 53012





000
SAUS44 KLIX 281052
MTRBVE
METAR KBVE 281051Z AUTO 04004KT 10SM CLR 11/08 A3020 RMK AO2 SLP227
T01060078





000
SAUS44 KLIX 280952
MTRBVE
METAR KBVE 280951Z AUTO 03005KT 10SM CLR 11/07 A3019 RMK AO2 SLP223
T01110072





000
SAUS44 KLIX 280952
MTRBVE
METAR KBVE 280951Z AUTO 03005KT 10SM CLR 11/07 A3019 RMK AO2 SLP223
T01110072





000
SAUS44 KLIX 280852
MTRBVE
METAR KBVE 280851Z AUTO 01003KT 10SM CLR 11/07 A3019 RMK AO2 SLP223
T01060067 52007





000
SAUS44 KLIX 280752
MTRBVE
METAR KBVE 280751Z AUTO 34005KT 10SM CLR 11/08 A3018 RMK AO2 SLP220
T01110078





000
SAUS44 KLIX 280752
MTRBVE
METAR KBVE 280751Z AUTO 34005KT 10SM CLR 11/08 A3018 RMK AO2 SLP220
T01110078





000
SAUS44 KLIX 280653
MTRBVE
METAR KBVE 280651Z AUTO 32005KT 10SM CLR 13/09 A3018 RMK AO2 SLP219
T01280094





000
SAUS44 KLIX 280653
MTRBVE
METAR KBVE 280651Z AUTO 32005KT 10SM CLR 13/09 A3018 RMK AO2 SLP219
T01280094





000
SAUS44 KLIX 280552
MTRBVE
METAR KBVE 280551Z AUTO 30006KT 10SM CLR 12/10 A3017 RMK AO2 SLP216
T01220100 10156 20117 402000089 53010





000
SAUS44 KLIX 280552
MTRBVE
METAR KBVE 280551Z AUTO 30006KT 10SM CLR 12/10 A3017 RMK AO2 SLP216
T01220100 10156 20117 402000089 53010





000
SAUS44 KLIX 280453
MTRBVE
METAR KBVE 280451Z AUTO 29006KT 10SM CLR 12/11 A3016 RMK AO2 SLP212
T01220111





000
SAUS44 KLIX 280353
MTRBVE
METAR KBVE 280351Z AUTO 28008KT 10SM CLR 13/11 A3015 RMK AO2 SLP208
T01280111





000
SAUS44 KLIX 280353
MTRBVE
METAR KBVE 280351Z AUTO 28008KT 10SM CLR 13/11 A3015 RMK AO2 SLP208
T01280111





000
SAUS44 KLIX 280252
MTRBVE
METAR KBVE 280251Z AUTO 26005KT 8SM CLR 14/13 A3014 RMK AO2 SLP205
T01390128 51011





000
SAUS44 KLIX 280252
MTRBVE
METAR KBVE 280251Z AUTO 26005KT 8SM CLR 14/13 A3014 RMK AO2 SLP205
T01390128 51011





000
SAUS44 KLIX 280155 COR
MTRBVE
METAR KBVE 280151Z AUTO 24004KT 10SM CLR 14/13 A3013 RMK AO2 SLP203
T01390128





000
SAUS44 KLIX 280153 COR
MTRBVE
METAR KBVE 280151Z AUTO 24004KT 10SM CLR 14/13 A3013 RMK AO2 SLP203
T01390128





000
SAUS44 KLIX 280052
MTRBVE
METAR KBVE 280051Z AUTO 24005KT 10SM CLR 14/12 A3012 RMK AO2 SLP200
T01440122





000
SAUS44 KLIX 272352
MTRBVE
METAR KBVE 272351Z AUTO 24005KT 10SM CLR 16/12 A3011 RMK AO2 SLP195
T01560117 10200 20156 53009





000
SAUS44 KLIX 272253
MTRBVE
METAR KBVE 272251Z AUTO 25005KT 10SM CLR 17/11 A3009 RMK AO2 SLP190
T01720106





000
SAUS44 KLIX 272152
MTRBVE
METAR KBVE 272151Z AUTO 23007KT 10SM CLR 18/07 A3009 RMK AO2 SLP188
T01830072





000
SAUS44 KLIX 272052
MTRBVE
METAR KBVE 272051Z AUTO 32006KT 10SM CLR 20/04 A3008 RMK AO2 SLP186
T02000039 56016





000
SAUS44 KLIX 271952
MTRBVE
METAR KBVE 271951Z AUTO VRB04KT 10SM CLR 19/07 A3008 RMK AO2 SLP187
T01890067





000
SAUS44 KLIX 271852
MTRBVE
METAR KBVE 271851Z AUTO VRB03KT 10SM CLR 18/07 A3010 RMK AO2 SLP193
T01780072





000
SAUS44 KLIX 271753 COR
MTRBVE
METAR KBVE 271751Z AUTO VRB06KT 10SM CLR 16/07 A3013 RMK AO2 SLP202
T01610072 10167 20100 58000





000
SAUS44 KLIX 271652
MTRBVE
METAR KBVE 271651Z AUTO 34010KT 10SM CLR 15/08 A3015 RMK AO2 SLP208
T01500078





000
SAUS44 KLIX 271553
MTRBVE
METAR KBVE 271551Z AUTO 32012KT 10SM CLR 16/07 A3014 RMK AO2 SLP207
T01560072





000
SAUS44 KLIX 271553
MTRBVE
METAR KBVE 271551Z AUTO 32012KT 10SM CLR 16/07 A3014 RMK AO2 SLP207
T01560072





000
SAUS44 KLIX 271452
MTRBVE
METAR KBVE 271451Z AUTO 30009KT 10SM CLR 14/08 A3013 RMK AO2 SLP202
T01390083 51015





000
SAUS44 KLIX 271352
MTRBVE
METAR KBVE 271351Z AUTO 30006KT 10SM CLR 12/08 A3011 RMK AO2 SLP197
T01170078





000
SAUS44 KLIX 271252
MTRBVE
METAR KBVE 271251Z AUTO 28006KT 10SM CLR 11/08 A3010 RMK AO2 SLP193
T01060078





000
SAUS44 KLIX 271154
MTRBVE
METAR KBVE 271151Z AUTO 26006KT 10SM CLR 11/09 A3009 RMK AO2 SLP187
T01060089 10111 20089 55007





000
SAUS44 KLIX 271052
MTRBVE
METAR KBVE 271051Z AUTO 25006KT 10SM CLR 11/09 A3007 RMK AO2 SLP183
T01060089





000
SAUS44 KLIX 270952
MTRBVE
METAR KBVE 270951Z AUTO 26006KT 10SM CLR 11/08 A3009 RMK AO2 SLP188
T01110083





000
SAUS44 KLIX 270952
MTRBVE
METAR KBVE 270951Z AUTO 26006KT 10SM CLR 11/08 A3009 RMK AO2 SLP188
T01110083





000
SAUS44 KLIX 270852
MTRBVE
METAR KBVE 270851Z AUTO 27005KT 10SM CLR 09/07 A3011 RMK AO2 SLP194
T00940072 50002





000
SAUS44 KLIX 270753
MTRBVE
METAR KBVE 270751Z AUTO 29006KT 10SM CLR 09/07 A3012 RMK AO2 SLP199
T00890072





000
SAUS44 KLIX 270652
MTRBVE
METAR KBVE 270651Z AUTO 28007KT 10SM CLR 10/07 A3011 RMK AO2 SLP195
T01000067





000
SAUS44 KLIX 270552
MTRBVE
METAR KBVE 270551Z AUTO 27007KT 10SM CLR 11/07 A3010 RMK AO2 SLP192
T01110072 10122 20089 401500089 58004





000
SAUS44 KLIX 270453
MTRBVE
METAR KBVE 270451Z AUTO 26007KT 10SM CLR 11/07 A3010 RMK AO2 SLP192
T01060072





000
SAUS44 KLIX 270352
MTRBVE
METAR KBVE 270351Z AUTO 27006KT 10SM CLR 09/05 A3011 RMK AO2 SLP196
T00940050





000
SAUS44 KLIX 270352
MTRBVE
METAR KBVE 270351Z AUTO 27006KT 10SM CLR 09/05 A3011 RMK AO2 SLP196
T00940050





000
SAUS44 KLIX 270252
MTRBVE
METAR KBVE 270251Z AUTO 27006KT 10SM CLR 11/07 A3011 RMK AO2 SLP195
T01060072 50006





000
SAUS44 KLIX 270156 COR
MTRBVE
METAR KBVE 270151Z AUTO 28005KT 10SM CLR 09/07 A3012 RMK AO2 SLP198
T00940072





000
SAUS44 KLIX 270153 COR
MTRBVE
METAR KBVE 270151Z AUTO 28005KT 10SM CLR 09/07 A3012 RMK AO2 SLP198
T00940072





000
SAUS44 KLIX 270052
MTRBVE
METAR KBVE 270051Z AUTO 28005KT 10SM CLR 10/06 A3011 RMK AO2 SLP194
T01000061





000
SAUS44 KLIX 262353
MTRBVE
METAR KBVE 262351Z AUTO 31005KT 10SM CLR 12/04 A3009 RMK AO2 SLP189
T01170044 10150 20111 53010





000
SAUS44 KLIX 262252
MTRBVE
METAR KBVE 262251Z AUTO 32006KT 10SM CLR 14/04 A3008 RMK AO2 SLP184
T01390039





000
SAUS44 KLIX 262152
MTRBVE
METAR KBVE 262151Z AUTO 32009KT 10SM CLR 14/04 A3006 RMK AO2 SLP178
T01440039





000
SAUS44 KLIX 262052
MTRBVE
METAR KBVE 262051Z AUTO 31010KT 10SM CLR 14/03 A3006 RMK AO2 SLP179
T01440033 56016





000
SAUS44 KLIX 261952
MTRBVE
METAR KBVE 261951Z AUTO 32010KT 10SM CLR 13/04 A3007 RMK AO2 SLP181
T01330039





000
SAUS44 KLIX 261852
MTRBVE
METAR KBVE 261851Z AUTO 31012KT 10SM CLR 12/04 A3008 RMK AO2 SLP186
T01220039





000
SAUS44 KLIX 261753
MTRBVE
METAR KBVE 261751Z AUTO 33012KT 10SM CLR 12/04 A3011 RMK AO2 SLP195
T01220039 10122 20089 58009





000
SAUS44 KLIX 261653
MTRBVE
METAR KBVE 261651Z AUTO 32009KT 10SM CLR 12/04 A3013 RMK AO2 SLP204
T01170039





000
SAUS44 KLIX 261552
MTRBVE
METAR KBVE 261551Z AUTO 34015G22KT 10SM CLR 11/03 A3014 RMK AO2
SLP206 T01110033





000
SAUS44 KLIX 261452
MTRBVE
METAR KBVE 261451Z AUTO 34012G18KT 10SM CLR 11/03 A3014 RMK AO2
SLP204 T01060033 53024





000
SAUS44 KLIX 261352
MTRBVE
METAR KBVE 261351Z AUTO 34012KT 10SM CLR 10/03 A3011 RMK AO2 SLP194
T01000028





000
SAUS44 KLIX 261253
MTRBVE
METAR KBVE 261251Z AUTO 33011KT 10SM CLR 10/03 A3009 RMK AO2 SLP189
T01000033





000
SAUS44 KLIX 261153
MTRBVE
METAR KBVE 261151Z AUTO 31006KT 10SM CLR 09/04 A3006 RMK AO2 SLP180
T00890039 10122 20089 53006





000
SAUS44 KLIX 261053
MTRBVE
METAR KBVE 261051Z AUTO 30008KT 10SM CLR 10/04 A3005 RMK AO2 SLP175
T01000039





000
SAUS44 KLIX 260952
MTRBVE
METAR KBVE 260951Z AUTO 27007KT 10SM CLR 09/05 A3004 RMK AO2 SLP173
T00940050





000
SAUS44 KLIX 260852
MTRBVE
METAR KBVE 260851Z AUTO 28008KT 10SM CLR 11/06 A3005 RMK AO2 SLP174
T01060061 53016





000
SAUS44 KLIX 260752
MTRBVE
METAR KBVE 260751Z AUTO 28009KT 10SM CLR 11/07 A3003 RMK AO2 SLP169
T01110067





000
SAUS44 KLIX 260653
MTRBVE
METAR KBVE 260651Z AUTO 28009KT 10SM CLR 12/07 A3001 RMK AO2 SLP161
T01170072





000
SAUS44 KLIX 260552
MTRBVE
METAR KBVE 260551Z AUTO 29011KT 10SM CLR 12/08 A3000 RMK AO2 SLP158
T01220083 10161 20122 401720072 52016





000
SAUS44 KLIX 260452
MTRBVE
METAR KBVE 260451Z AUTO 28010KT 10SM FEW080 13/09 A2998 RMK AO2
SLP152 T01280089





000
SAUS44 KLIX 260352
MTRBVE
METAR KBVE 260351Z AUTO 27014KT 10SM CLR 14/09 A2997 RMK AO2 SLP149
T01390094





000
SAUS44 KLIX 260252
MTRBVE
METAR KBVE 260251Z AUTO 26016G23KT 10SM CLR 14/10 A2995 RMK AO2 PK
WND 27030/0211 SLP143 T01440100 53013





000
SAUS44 KLIX 260154 COR
MTRBVE
METAR KBVE 260151Z AUTO 27018KT 10SM CLR 16/09 A2994 RMK AO2 PK WND
25029/0106 SLP138 T01610089





000
SAUS44 KLIX 260154 COR
MTRBVE
METAR KBVE 260151Z AUTO 27018KT 10SM CLR 16/09 A2994 RMK AO2 PK WND
25029/0106 SLP138 T01610089





000
SAUS44 KLIX 260153 COR
MTRBVE
METAR KBVE 260151Z AUTO 27018KT 10SM CLR 16/09 A2994 RMK AO2 PK WND
25029/0106 SLP138 T01610089





000
SAUS44 KLIX 260153 COR
MTRBVE
METAR KBVE 260151Z AUTO 27018KT 10SM CLR 16/09 A2994 RMK AO2 PK WND
25029/0106 SLP138 T01610089





000
SAUS44 KLIX 260052
MTRBVE
METAR KBVE 260051Z AUTO 26018G28KT 10SM CLR 16/09 A2992 RMK AO2 PK
WND 25029/0010 SLP130 T01610094





000
SAUS44 KLIX 252352
MTRBVE
METAR KBVE 252351Z AUTO 26019G26KT 10SM CLR 16/11 A2992 RMK AO2 PK
WND 25027/2255 SLP130 T01610111 10172 20156 58017





000
SAUS44 KLIX 252253
MTRBVE
METAR KBVE 252251Z AUTO 25018G25KT 10SM CLR 16/11 A2993 RMK AO2
SLP134 T01610106





000
SAUS44 KLIX 252156 COR
MTRBVE
METAR KBVE 252151Z AUTO 24016G26KT 10SM CLR 17/12 A2996 RMK AO2 PK
WND 24026/2146 SLP145 T01670117





000
SAUS44 KLIX 252153 COR
MTRBVE
METAR KBVE 252151Z AUTO 24016G26KT 10SM CLR 17/12 A2996 RMK AO2 PK
WND 24026/2146 SLP145 T01670117





000
SAUS44 KLIX 252052
MTRBVE
METAR KBVE 252051Z AUTO 24014G21KT 10SM CLR 17/12 A2997 RMK AO2
SLP147 T01720117 56016





    US Dept of Commerce
    National Oceanic and Atmospheric Administration
    National Weather Service
    1325 East West Highway
    Silver Spring, MD 20910
    Page Author: NWS Internet Services Team
Disclaimer
Information Quality
Credits
Glossary
Privacy Policy
Freedom of Information Act (FOIA)
About Us
Career Opportunities